sensor_id;sensor_type;location;lat;lon;timestamp;temperature;humidity
6357;DHT22;3211;53.452;-2.264;2023-08-06T00:02:40;12.30;99.90
6357;DHT22;3211;53.452;-2.264;2023-08-06T00:05:22;12.20;99.90
6357;DHT22;3211;53.452;-2.264;2023-08-06T00:08:04;12.30;99.90
6357;DHT22;3211;53.452;-2.264;2023-08-06T00:10:47;12.40;99.90
6357;DHT22;3211;53.452;-2.264;2023-08-06T00:13:29;12.40;99.90
6357;DHT22;3211;53.452;-2.264;2023-08-06T00:16:13;12.50;99.90
6357;DHT22;3211;53.452;-2.264;2023-08-06T00:18:55;12.40;99.90
6357;DHT22;3211;53.452;-2.264;2023-08-06T00:21:37;12.50;99.90
6357;DHT22;3211;53.452;-2.264;2023-08-06T00:24:19;12.50;99.90
6357;DHT22;3211;53.452;-2.264;2023-08-06T00:27:01;12.50;99.90
6357;DHT22;3211;53.452;-2.264;2023-08-06T00:29:43;12.50;99.90
6357;DHT22;3211;53.452;-2.264;2023-08-06T00:32:27;12.50;99.90
6357;DHT22;3211;53.452;-2.264;2023-08-06T00:35:09;12.50;99.90
6357;DHT22;3211;53.452;-2.264;2023-08-06T00:37:51;12.60;99.90
6357;DHT22;3211;53.452;-2.264;2023-08-06T00:40:33;12.60;73.10
6357;DHT22;3211;53.452;-2.264;2023-08-06T00:43:15;12.60;1.00
6357;DHT22;3211;53.452;-2.264;2023-08-06T00:45:57;12.60;1.00
6357;DHT22;3211;53.452;-2.264;2023-08-06T00:48:41;12.70;1.00
6357;DHT22;3211;53.452;-2.264;2023-08-06T00:51:24;12.60;1.00
6357;DHT22;3211;53.452;-2.264;2023-08-06T00:54:07;12.60;22.40
6357;DHT22;3211;53.452;-2.264;2023-08-06T00:56:50;12.60;1.00
6357;DHT22;3211;53.452;-2.264;2023-08-06T00:59:32;12.60;1.00
6357;DHT22;3211;53.452;-2.264;2023-08-06T01:02:14;12.60;14.30
6357;DHT22;3211;53.452;-2.264;2023-08-06T01:04:57;12.60;99.90
6357;DHT22;3211;53.452;-2.264;2023-08-06T01:07:47;12.60;56.30
6357;DHT22;3211;53.452;-2.264;2023-08-06T01:10:40;12.60;99.90
6357;DHT22;3211;53.452;-2.264;2023-08-06T01:13:31;12.60;99.90
6357;DHT22;3211;53.452;-2.264;2023-08-06T01:16:15;12.50;96.20
6357;DHT22;3211;53.452;-2.264;2023-08-06T01:18:58;12.40;5.70
6357;DHT22;3211;53.452;-2.264;2023-08-06T01:21:42;12.40;1.00
6357;DHT22;3211;53.452;-2.264;2023-08-06T01:24:24;12.40;1.00
6357;DHT22;3211;53.452;-2.264;2023-08-06T01:27:09;12.40;1.00
6357;DHT22;3211;53.452;-2.264;2023-08-06T01:29:59;12.30;99.90
6357;DHT22;3211;53.452;-2.264;2023-08-06T01:32:44;12.30;1.00
6357;DHT22;3211;53.452;-2.264;2023-08-06T01:35:29;12.30;1.00
6357;DHT22;3211;53.452;-2.264;2023-08-06T01:38:12;12.40;1.00
6357;DHT22;3211;53.452;-2.264;2023-08-06T01:40:54;12.30;99.90
6357;DHT22;3211;53.452;-2.264;2023-08-06T01:43:36;12.30;1.00
6357;DHT22;3211;53.452;-2.264;2023-08-06T01:46:20;12.20;99.90
6357;DHT22;3211;53.452;-2.264;2023-08-06T01:49:02;12.20;1.00
6357;DHT22;3211;53.452;-2.264;2023-08-06T01:51:44;12.20;1.00
6357;DHT22;3211;53.452;-2.264;2023-08-06T01:54:27;12.20;99.90
6357;DHT22;3211;53.452;-2.264;2023-08-06T01:57:09;12.20;99.90
6357;DHT22;3211;53.452;-2.264;2023-08-06T01:59:52;12.30;99.90
6357;DHT22;3211;53.452;-2.264;2023-08-06T02:02:33;12.30;99.90
6357;DHT22;3211;53.452;-2.264;2023-08-06T02:05:15;12.30;11.50
6357;DHT22;3211;53.452;-2.264;2023-08-06T02:07:57;12.30;1.00
6357;DHT22;3211;53.452;-2.264;2023-08-06T02:10:41;12.40;1.00
6357;DHT22;3211;53.452;-2.264;2023-08-06T02:13:23;12.40;1.00
6357;DHT22;3211;53.452;-2.264;2023-08-06T02:16:07;12.40;1.00
6357;DHT22;3211;53.452;-2.264;2023-08-06T02:18:50;12.40;1.00
6357;DHT22;3211;53.452;-2.264;2023-08-06T02:21:31;12.40;1.00
6357;DHT22;3211;53.452;-2.264;2023-08-06T02:24:13;12.40;1.00
6357;DHT22;3211;53.452;-2.264;2023-08-06T02:26:57;12.30;1.00
6357;DHT22;3211;53.452;-2.264;2023-08-06T02:29:40;12.30;73.60
6357;DHT22;3211;53.452;-2.264;2023-08-06T02:32:22;12.20;99.90
6357;DHT22;3211;53.452;-2.264;2023-08-06T02:35:05;12.30;99.90
6357;DHT22;3211;53.452;-2.264;2023-08-06T02:37:47;12.30;55.40
6357;DHT22;3211;53.452;-2.264;2023-08-06T02:40:29;12.30;99.90
6357;DHT22;3211;53.452;-2.264;2023-08-06T02:43:12;12.30;99.90
6357;DHT22;3211;53.452;-2.264;2023-08-06T02:45:57;12.20;99.90
6357;DHT22;3211;53.452;-2.264;2023-08-06T02:48:39;12.30;99.90
6357;DHT22;3211;53.452;-2.264;2023-08-06T02:51:21;12.30;99.90
6357;DHT22;3211;53.452;-2.264;2023-08-06T02:54:03;12.20;99.90
6357;DHT22;3211;53.452;-2.264;2023-08-06T02:56:45;12.30;99.90
6357;DHT22;3211;53.452;-2.264;2023-08-06T02:59:29;12.20;99.90
6357;DHT22;3211;53.452;-2.264;2023-08-06T03:02:11;12.20;99.90
6357;DHT22;3211;53.452;-2.264;2023-08-06T03:04:53;12.30;99.90
6357;DHT22;3211;53.452;-2.264;2023-08-06T03:07:35;12.30;99.90
6357;DHT22;3211;53.452;-2.264;2023-08-06T03:10:18;12.30;99.90
6357;DHT22;3211;53.452;-2.264;2023-08-06T03:13:00;12.30;99.90
6357;DHT22;3211;53.452;-2.264;2023-08-06T03:15:44;12.40;99.90
6357;DHT22;3211;53.452;-2.264;2023-08-06T03:18:33;12.50;99.90
6357;DHT22;3211;53.452;-2.264;2023-08-06T03:21:14;12.50;99.90
6357;DHT22;3211;53.452;-2.264;2023-08-06T03:23:56;12.40;99.90
6357;DHT22;3211;53.452;-2.264;2023-08-06T03:26:38;12.40;92.00
6357;DHT22;3211;53.452;-2.264;2023-08-06T03:29:20;12.30;99.90
6357;DHT22;3211;53.452;-2.264;2023-08-06T03:32:05;12.30;99.90
6357;DHT22;3211;53.452;-2.264;2023-08-06T03:34:47;12.30;99.90
6357;DHT22;3211;53.452;-2.264;2023-08-06T03:37:29;12.30;99.90
6357;DHT22;3211;53.452;-2.264;2023-08-06T03:40:11;12.30;99.90
6357;DHT22;3211;53.452;-2.264;2023-08-06T03:42:53;12.20;99.90
6357;DHT22;3211;53.452;-2.264;2023-08-06T03:45:35;12.30;99.90
6357;DHT22;3211;53.452;-2.264;2023-08-06T03:48:18;12.30;99.90
6357;DHT22;3211;53.452;-2.264;2023-08-06T03:51:00;12.30;99.90
6357;DHT22;3211;53.452;-2.264;2023-08-06T03:53:42;12.40;99.90
6357;DHT22;3211;53.452;-2.264;2023-08-06T03:56:24;12.40;99.90
6357;DHT22;3211;53.452;-2.264;2023-08-06T03:59:06;12.40;99.90
6357;DHT22;3211;53.452;-2.264;2023-08-06T04:01:48;12.20;28.90
6357;DHT22;3211;53.452;-2.264;2023-08-06T04:04:31;12.20;5.40
6357;DHT22;3211;53.452;-2.264;2023-08-06T04:07:13;12.30;76.90
6357;DHT22;3211;53.452;-2.264;2023-08-06T04:09:57;12.30;67.10
6357;DHT22;3211;53.452;-2.264;2023-08-06T04:12:39;12.30;1.00
6357;DHT22;3211;53.452;-2.264;2023-08-06T04:15:21;12.30;6.00
6357;DHT22;3211;53.452;-2.264;2023-08-06T04:18:03;12.30;1.00
6357;DHT22;3211;53.452;-2.264;2023-08-06T04:20:47;12.30;1.00
6357;DHT22;3211;53.452;-2.264;2023-08-06T04:23:30;12.30;1.00
6357;DHT22;3211;53.452;-2.264;2023-08-06T04:26:12;12.30;1.00
6357;DHT22;3211;53.452;-2.264;2023-08-06T04:28:53;12.30;1.00
6357;DHT22;3211;53.452;-2.264;2023-08-06T04:31:35;12.20;17.40
6357;DHT22;3211;53.452;-2.264;2023-08-06T04:34:17;12.20;28.50
6357;DHT22;3211;53.452;-2.264;2023-08-06T04:37:01;12.30;73.90
6357;DHT22;3211;53.452;-2.264;2023-08-06T04:39:43;12.20;99.90
6357;DHT22;3211;53.452;-2.264;2023-08-06T04:42:25;12.20;99.90
6357;DHT22;3211;53.452;-2.264;2023-08-06T04:45:08;12.20;99.90
6357;DHT22;3211;53.452;-2.264;2023-08-06T04:47:50;12.30;99.90
6357;DHT22;3211;53.452;-2.264;2023-08-06T04:50:32;12.30;99.90
6357;DHT22;3211;53.452;-2.264;2023-08-06T04:53:16;12.30;99.90
6357;DHT22;3211;53.452;-2.264;2023-08-06T04:55:58;12.20;99.90
6357;DHT22;3211;53.452;-2.264;2023-08-06T04:58:40;12.20;99.90
6357;DHT22;3211;53.452;-2.264;2023-08-06T05:01:22;12.30;99.90
6357;DHT22;3211;53.452;-2.264;2023-08-06T05:04:04;12.30;98.30
6357;DHT22;3211;53.452;-2.264;2023-08-06T05:06:46;12.30;81.10
6357;DHT22;3211;53.452;-2.264;2023-08-06T05:09:29;12.40;77.50
6357;DHT22;3211;53.452;-2.264;2023-08-06T05:12:11;12.40;35.20
6357;DHT22;3211;53.452;-2.264;2023-08-06T05:14:53;12.40;59.90
6357;DHT22;3211;53.452;-2.264;2023-08-06T05:17:35;12.40;67.60
6357;DHT22;3211;53.452;-2.264;2023-08-06T05:20:17;12.40;61.20
6357;DHT22;3211;53.452;-2.264;2023-08-06T05:22:59;12.40;92.60
6357;DHT22;3211;53.452;-2.264;2023-08-06T05:25:42;12.40;99.50
6357;DHT22;3211;53.452;-2.264;2023-08-06T05:28:24;12.40;59.60
6357;DHT22;3211;53.452;-2.264;2023-08-06T05:31:06;12.30;27.10
6357;DHT22;3211;53.452;-2.264;2023-08-06T05:33:48;12.40;99.90
6357;DHT22;3211;53.452;-2.264;2023-08-06T05:36:30;12.40;99.90
6357;DHT22;3211;53.452;-2.264;2023-08-06T05:39:12;12.50;99.90
6357;DHT22;3211;53.452;-2.264;2023-08-06T05:41:55;12.50;64.20
6357;DHT22;3211;53.452;-2.264;2023-08-06T05:44:37;12.40;1.00
6357;DHT22;3211;53.452;-2.264;2023-08-06T05:47:19;12.50;13.10
6357;DHT22;3211;53.452;-2.264;2023-08-06T05:50:01;12.50;14.30
6357;DHT22;3211;53.452;-2.264;2023-08-06T05:52:43;12.50;1.00
6357;DHT22;3211;53.452;-2.264;2023-08-06T05:55:29;12.60;1.00
6357;DHT22;3211;53.452;-2.264;2023-08-06T05:58:17;12.60;1.00
6357;DHT22;3211;53.452;-2.264;2023-08-06T06:01:00;12.70;1.00
6357;DHT22;3211;53.452;-2.264;2023-08-06T06:03:42;12.60;1.00
6357;DHT22;3211;53.452;-2.264;2023-08-06T06:06:24;12.50;99.90
6357;DHT22;3211;53.452;-2.264;2023-08-06T06:09:06;12.60;1.00
6357;DHT22;3211;53.452;-2.264;2023-08-06T06:11:48;12.60;1.00
6357;DHT22;3211;53.452;-2.264;2023-08-06T06:14:32;12.60;1.00
6357;DHT22;3211;53.452;-2.264;2023-08-06T06:17:14;12.60;1.00
6357;DHT22;3211;53.452;-2.264;2023-08-06T06:19:55;12.70;1.00
6357;DHT22;3211;53.452;-2.264;2023-08-06T06:22:37;12.60;99.90
6357;DHT22;3211;53.452;-2.264;2023-08-06T06:25:19;12.60;99.90
6357;DHT22;3211;53.452;-2.264;2023-08-06T06:28:01;12.70;99.90
6357;DHT22;3211;53.452;-2.264;2023-08-06T06:30:45;12.80;1.00
6357;DHT22;3211;53.452;-2.264;2023-08-06T06:33:27;13.00;99.90
6357;DHT22;3211;53.452;-2.264;2023-08-06T06:36:09;13.00;99.90
6357;DHT22;3211;53.452;-2.264;2023-08-06T06:38:51;13.10;99.90
6357;DHT22;3211;53.452;-2.264;2023-08-06T06:41:33;13.10;1.00
6357;DHT22;3211;53.452;-2.264;2023-08-06T06:44:15;13.10;99.90
6357;DHT22;3211;53.452;-2.264;2023-08-06T06:46:58;13.20;99.90
6357;DHT22;3211;53.452;-2.264;2023-08-06T06:49:40;13.10;99.90
6357;DHT22;3211;53.452;-2.264;2023-08-06T06:52:22;13.10;99.90
6357;DHT22;3211;53.452;-2.264;2023-08-06T06:55:05;13.10;99.90
6357;DHT22;3211;53.452;-2.264;2023-08-06T06:57:47;13.20;99.90
6357;DHT22;3211;53.452;-2.264;2023-08-06T07:00:29;13.20;99.90
6357;DHT22;3211;53.452;-2.264;2023-08-06T07:03:12;13.20;99.90
6357;DHT22;3211;53.452;-2.264;2023-08-06T07:05:57;13.30;99.90
6357;DHT22;3211;53.452;-2.264;2023-08-06T07:08:40;13.30;99.90
6357;DHT22;3211;53.452;-2.264;2023-08-06T07:11:22;13.30;99.90
6357;DHT22;3211;53.452;-2.264;2023-08-06T07:14:04;13.40;99.90
6357;DHT22;3211;53.452;-2.264;2023-08-06T07:16:46;13.50;99.90
6357;DHT22;3211;53.452;-2.264;2023-08-06T07:19:29;13.60;90.20
6357;DHT22;3211;53.452;-2.264;2023-08-06T07:22:11;13.50;99.90
6357;DHT22;3211;53.452;-2.264;2023-08-06T07:24:53;13.80;99.90
6357;DHT22;3211;53.452;-2.264;2023-08-06T07:27:35;13.80;32.40
6357;DHT22;3211;53.452;-2.264;2023-08-06T07:30:17;13.80;1.00
6357;DHT22;3211;53.452;-2.264;2023-08-06T07:32:59;13.80;1.00
6357;DHT22;3211;53.452;-2.264;2023-08-06T07:35:42;13.80;1.00
6357;DHT22;3211;53.452;-2.264;2023-08-06T07:38:24;13.80;1.00
6357;DHT22;3211;53.452;-2.264;2023-08-06T07:41:07;13.80;60.40
6357;DHT22;3211;53.452;-2.264;2023-08-06T07:43:49;13.90;22.20
6357;DHT22;3211;53.452;-2.264;2023-08-06T07:46:31;14.10;1.00
6357;DHT22;3211;53.452;-2.264;2023-08-06T07:49:13;13.90;1.00
6357;DHT22;3211;53.452;-2.264;2023-08-06T07:51:57;13.90;1.00
6357;DHT22;3211;53.452;-2.264;2023-08-06T07:54:39;14.10;1.00
6357;DHT22;3211;53.452;-2.264;2023-08-06T07:57:21;14.00;1.00
6357;DHT22;3211;53.452;-2.264;2023-08-06T08:00:03;14.10;1.00
6357;DHT22;3211;53.452;-2.264;2023-08-06T08:02:45;14.30;1.00
6357;DHT22;3211;53.452;-2.264;2023-08-06T08:05:27;14.30;99.90
6357;DHT22;3211;53.452;-2.264;2023-08-06T08:08:11;14.40;41.40
6357;DHT22;3211;53.452;-2.264;2023-08-06T08:10:54;14.50;47.80
6357;DHT22;3211;53.452;-2.264;2023-08-06T08:13:36;14.60;1.00
6357;DHT22;3211;53.452;-2.264;2023-08-06T08:16:18;14.60;1.00
6357;DHT22;3211;53.452;-2.264;2023-08-06T08:19:00;14.60;1.00
6357;DHT22;3211;53.452;-2.264;2023-08-06T08:21:44;14.70;1.00
6357;DHT22;3211;53.452;-2.264;2023-08-06T08:24:27;14.70;1.00
6357;DHT22;3211;53.452;-2.264;2023-08-06T08:27:11;14.80;1.00
6357;DHT22;3211;53.452;-2.264;2023-08-06T08:29:53;14.90;1.00
6357;DHT22;3211;53.452;-2.264;2023-08-06T08:32:35;14.90;99.90
6357;DHT22;3211;53.452;-2.264;2023-08-06T08:35:17;15.10;99.90
6357;DHT22;3211;53.452;-2.264;2023-08-06T08:37:58;15.20;24.80
6357;DHT22;3211;53.452;-2.264;2023-08-06T08:40:45;15.30;99.90
6357;DHT22;3211;53.452;-2.264;2023-08-06T08:43:27;15.50;99.90
6357;DHT22;3211;53.452;-2.264;2023-08-06T08:46:12;15.60;99.90
6357;DHT22;3211;53.452;-2.264;2023-08-06T08:48:56;15.60;1.00
6357;DHT22;3211;53.452;-2.264;2023-08-06T08:51:38;15.70;99.90
6357;DHT22;3211;53.452;-2.264;2023-08-06T08:54:23;15.80;94.00
6357;DHT22;3211;53.452;-2.264;2023-08-06T08:57:07;15.80;99.90
6357;DHT22;3211;53.452;-2.264;2023-08-06T08:59:49;15.80;99.90
6357;DHT22;3211;53.452;-2.264;2023-08-06T09:02:33;15.90;99.90
6357;DHT22;3211;53.452;-2.264;2023-08-06T09:05:15;15.80;99.90
6357;DHT22;3211;53.452;-2.264;2023-08-06T09:08:03;16.00;1.00
6357;DHT22;3211;53.452;-2.264;2023-08-06T09:10:48;16.00;99.90
6357;DHT22;3211;53.452;-2.264;2023-08-06T09:13:31;16.00;99.90
6357;DHT22;3211;53.452;-2.264;2023-08-06T09:16:13;16.10;47.40
6357;DHT22;3211;53.452;-2.264;2023-08-06T09:19:06;16.00;1.00
6357;DHT22;3211;53.452;-2.264;2023-08-06T09:21:51;16.20;99.90
6357;DHT22;3211;53.452;-2.264;2023-08-06T09:24:33;16.20;9.00
6357;DHT22;3211;53.452;-2.264;2023-08-06T09:27:16;16.30;1.00
6357;DHT22;3211;53.452;-2.264;2023-08-06T09:30:00;16.40;99.90
6357;DHT22;3211;53.452;-2.264;2023-08-06T09:32:45;16.50;99.90
6357;DHT22;3211;53.452;-2.264;2023-08-06T09:35:29;16.70;91.40
6357;DHT22;3211;53.452;-2.264;2023-08-06T09:38:11;16.80;1.00
6357;DHT22;3211;53.452;-2.264;2023-08-06T09:40:53;16.90;99.90
6357;DHT22;3211;53.452;-2.264;2023-08-06T09:43:41;17.30;99.90
6357;DHT22;3211;53.452;-2.264;2023-08-06T09:46:25;17.30;1.00
6357;DHT22;3211;53.452;-2.264;2023-08-06T09:49:07;17.30;99.90
6357;DHT22;3211;53.452;-2.264;2023-08-06T09:51:51;17.60;99.90
6357;DHT22;3211;53.452;-2.264;2023-08-06T09:54:37;17.70;1.00
6357;DHT22;3211;53.452;-2.264;2023-08-06T09:57:19;17.70;1.00
6357;DHT22;3211;53.452;-2.264;2023-08-06T10:00:02;17.90;99.90
6357;DHT22;3211;53.452;-2.264;2023-08-06T10:02:47;17.80;77.80
6357;DHT22;3211;53.452;-2.264;2023-08-06T10:05:31;18.00;99.90
6357;DHT22;3211;53.452;-2.264;2023-08-06T10:08:13;17.90;1.00
6357;DHT22;3211;53.452;-2.264;2023-08-06T10:10:55;18.00;1.00
6357;DHT22;3211;53.452;-2.264;2023-08-06T10:13:38;17.80;1.00
6357;DHT22;3211;53.452;-2.264;2023-08-06T10:16:21;17.90;11.20
6357;DHT22;3211;53.452;-2.264;2023-08-06T10:19:05;17.70;99.90
6357;DHT22;3211;53.452;-2.264;2023-08-06T10:22:10;17.50;99.90
6357;DHT22;3211;53.452;-2.264;2023-08-06T10:24:54;17.40;99.90
6357;DHT22;3211;53.452;-2.264;2023-08-06T10:27:40;17.30;99.90
6357;DHT22;3211;53.452;-2.264;2023-08-06T10:30:35;17.50;1.00
6357;DHT22;3211;53.452;-2.264;2023-08-06T10:33:22;17.60;99.90
6357;DHT22;3211;53.452;-2.264;2023-08-06T10:36:08;17.70;99.90
6357;DHT22;3211;53.452;-2.264;2023-08-06T10:38:51;17.60;99.90
6357;DHT22;3211;53.452;-2.264;2023-08-06T10:41:33;17.30;1.00
6357;DHT22;3211;53.452;-2.264;2023-08-06T10:44:14;17.60;1.00
6357;DHT22;3211;53.452;-2.264;2023-08-06T10:47:25;17.60;1.00
6357;DHT22;3211;53.452;-2.264;2023-08-06T10:50:10;17.30;71.70
6357;DHT22;3211;53.452;-2.264;2023-08-06T10:52:54;17.20;99.90
6357;DHT22;3211;53.452;-2.264;2023-08-06T10:55:36;17.30;99.90
6357;DHT22;3211;53.452;-2.264;2023-08-06T10:58:19;17.40;99.90
6357;DHT22;3211;53.452;-2.264;2023-08-06T11:01:01;17.30;99.90
6357;DHT22;3211;53.452;-2.264;2023-08-06T11:03:44;16.90;1.00
6357;DHT22;3211;53.452;-2.264;2023-08-06T11:06:26;17.00;58.20
6357;DHT22;3211;53.452;-2.264;2023-08-06T11:09:10;17.00;99.90
6357;DHT22;3211;53.452;-2.264;2023-08-06T11:11:52;17.00;99.90
6357;DHT22;3211;53.452;-2.264;2023-08-06T11:14:33;17.00;99.90
6357;DHT22;3211;53.452;-2.264;2023-08-06T11:17:15;16.90;1.00
6357;DHT22;3211;53.452;-2.264;2023-08-06T11:19:59;16.90;1.00
6357;DHT22;3211;53.452;-2.264;2023-08-06T11:22:41;17.00;37.50
6357;DHT22;3211;53.452;-2.264;2023-08-06T11:25:25;17.10;1.00
6357;DHT22;3211;53.452;-2.264;2023-08-06T11:28:07;17.30;99.90
6357;DHT22;3211;53.452;-2.264;2023-08-06T11:30:49;17.30;99.90
6357;DHT22;3211;53.452;-2.264;2023-08-06T11:33:31;17.50;1.00
6357;DHT22;3211;53.452;-2.264;2023-08-06T11:36:13;17.40;51.10
6357;DHT22;3211;53.452;-2.264;2023-08-06T11:38:55;17.20;99.90
6357;DHT22;3211;53.452;-2.264;2023-08-06T11:41:39;17.40;99.90
6357;DHT22;3211;53.452;-2.264;2023-08-06T11:44:23;17.40;99.90
6357;DHT22;3211;53.452;-2.264;2023-08-06T11:47:05;17.20;99.90
6357;DHT22;3211;53.452;-2.264;2023-08-06T11:49:48;17.20;99.90
6357;DHT22;3211;53.452;-2.264;2023-08-06T11:52:31;17.30;1.00
6357;DHT22;3211;53.452;-2.264;2023-08-06T11:55:13;17.30;1.00
6357;DHT22;3211;53.452;-2.264;2023-08-06T11:57:57;17.20;99.90
6357;DHT22;3211;53.452;-2.264;2023-08-06T12:00:39;17.40;99.90
6357;DHT22;3211;53.452;-2.264;2023-08-06T12:03:21;17.10;99.90
6357;DHT22;3211;53.452;-2.264;2023-08-06T12:06:07;17.00;99.90
6357;DHT22;3211;53.452;-2.264;2023-08-06T12:08:49;16.90;99.90
6357;DHT22;3211;53.452;-2.264;2023-08-06T12:11:31;16.80;99.90
6357;DHT22;3211;53.452;-2.264;2023-08-06T12:14:15;16.90;99.90
6357;DHT22;3211;53.452;-2.264;2023-08-06T12:16:57;17.00;99.90
6357;DHT22;3211;53.452;-2.264;2023-08-06T12:19:38;16.90;99.90
6357;DHT22;3211;53.452;-2.264;2023-08-06T12:22:20;17.00;99.90
6357;DHT22;3211;53.452;-2.264;2023-08-06T12:25:03;16.90;99.90
6357;DHT22;3211;53.452;-2.264;2023-08-06T12:27:48;17.00;99.90
6357;DHT22;3211;53.452;-2.264;2023-08-06T12:30:31;17.30;99.90
6357;DHT22;3211;53.452;-2.264;2023-08-06T12:33:13;17.30;16.80
6357;DHT22;3211;53.452;-2.264;2023-08-06T12:35:55;17.20;5.00
6357;DHT22;3211;53.452;-2.264;2023-08-06T12:38:38;17.20;77.60
6357;DHT22;3211;53.452;-2.264;2023-08-06T12:41:20;17.40;1.00
6357;DHT22;3211;53.452;-2.264;2023-08-06T12:44:02;17.60;1.00
6357;DHT22;3211;53.452;-2.264;2023-08-06T12:46:46;17.50;1.00
6357;DHT22;3211;53.452;-2.264;2023-08-06T12:49:28;17.60;1.00
6357;DHT22;3211;53.452;-2.264;2023-08-06T12:52:11;17.50;34.50
6357;DHT22;3211;53.452;-2.264;2023-08-06T12:54:55;17.60;1.00
6357;DHT22;3211;53.452;-2.264;2023-08-06T12:57:37;17.60;1.00
6357;DHT22;3211;53.452;-2.264;2023-08-06T13:00:19;17.70;99.90
6357;DHT22;3211;53.452;-2.264;2023-08-06T13:03:03;17.40;99.90
6357;DHT22;3211;53.452;-2.264;2023-08-06T13:05:44;17.40;99.90
6357;DHT22;3211;53.452;-2.264;2023-08-06T13:08:26;17.50;99.90
6357;DHT22;3211;53.452;-2.264;2023-08-06T13:11:08;17.40;1.00
6357;DHT22;3211;53.452;-2.264;2023-08-06T13:13:50;17.00;12.30
6357;DHT22;3211;53.452;-2.264;2023-08-06T13:16:32;17.10;99.90
6357;DHT22;3211;53.452;-2.264;2023-08-06T13:19:16;16.80;1.00
6357;DHT22;3211;53.452;-2.264;2023-08-06T13:22:00;16.50;99.90
6357;DHT22;3211;53.452;-2.264;2023-08-06T13:24:43;16.30;1.00
6357;DHT22;3211;53.452;-2.264;2023-08-06T13:27:25;16.20;99.90
6357;DHT22;3211;53.452;-2.264;2023-08-06T13:30:09;16.10;1.00
6357;DHT22;3211;53.452;-2.264;2023-08-06T13:32:51;16.00;99.90
6357;DHT22;3211;53.452;-2.264;2023-08-06T13:35:34;15.80;99.90
6357;DHT22;3211;53.452;-2.264;2023-08-06T13:38:16;15.80;99.90
6357;DHT22;3211;53.452;-2.264;2023-08-06T13:40:58;15.70;99.90
6357;DHT22;3211;53.452;-2.264;2023-08-06T13:43:40;15.70;99.90
6357;DHT22;3211;53.452;-2.264;2023-08-06T13:46:22;15.60;99.90
6357;DHT22;3211;53.452;-2.264;2023-08-06T13:49:04;15.50;99.90
6357;DHT22;3211;53.452;-2.264;2023-08-06T13:51:48;15.50;1.00
6357;DHT22;3211;53.452;-2.264;2023-08-06T13:54:30;15.60;1.00
6357;DHT22;3211;53.452;-2.264;2023-08-06T13:57:12;15.90;99.90
6357;DHT22;3211;53.452;-2.264;2023-08-06T13:59:54;16.00;99.90
6357;DHT22;3211;53.452;-2.264;2023-08-06T14:02:36;16.00;99.90
6357;DHT22;3211;53.452;-2.264;2023-08-06T14:05:18;16.20;1.00
6357;DHT22;3211;53.452;-2.264;2023-08-06T14:08:01;16.40;99.90
6357;DHT22;3211;53.452;-2.264;2023-08-06T14:10:43;16.70;3.30
6357;DHT22;3211;53.452;-2.264;2023-08-06T14:13:25;17.10;99.90
6357;DHT22;3211;53.452;-2.264;2023-08-06T14:16:07;18.00;99.90
6357;DHT22;3211;53.452;-2.264;2023-08-06T14:18:49;18.30;99.90
6357;DHT22;3211;53.452;-2.264;2023-08-06T14:21:31;18.00;1.00
6357;DHT22;3211;53.452;-2.264;2023-08-06T14:24:14;18.40;77.60
6357;DHT22;3211;53.452;-2.264;2023-08-06T14:26:56;19.30;99.90
6357;DHT22;3211;53.452;-2.264;2023-08-06T14:29:38;19.00;99.90
6357;DHT22;3211;53.452;-2.264;2023-08-06T14:32:20;18.40;99.90
6357;DHT22;3211;53.452;-2.264;2023-08-06T14:35:02;18.00;99.90
6357;DHT22;3211;53.452;-2.264;2023-08-06T14:37:44;18.60;1.00
6357;DHT22;3211;53.452;-2.264;2023-08-06T14:40:28;18.60;53.30
6357;DHT22;3211;53.452;-2.264;2023-08-06T14:43:14;18.20;99.90
6357;DHT22;3211;53.452;-2.264;2023-08-06T14:45:56;18.20;1.00
6357;DHT22;3211;53.452;-2.264;2023-08-06T14:48:37;18.30;99.90
6357;DHT22;3211;53.452;-2.264;2023-08-06T14:51:20;19.30;1.00
6357;DHT22;3211;53.452;-2.264;2023-08-06T14:54:02;19.60;15.30
6357;DHT22;3211;53.452;-2.264;2023-08-06T14:56:45;20.10;1.00
6357;DHT22;3211;53.452;-2.264;2023-08-06T14:59:27;21.30;99.90
6357;DHT22;3211;53.452;-2.264;2023-08-06T15:02:09;25.80;33.00
6357;DHT22;3211;53.452;-2.264;2023-08-06T15:04:51;24.10;1.00
6357;DHT22;3211;53.452;-2.264;2023-08-06T15:07:36;22.00;99.90
6357;DHT22;3211;53.452;-2.264;2023-08-06T15:10:19;20.00;1.00
6357;DHT22;3211;53.452;-2.264;2023-08-06T15:13:02;19.60;1.00
6357;DHT22;3211;53.452;-2.264;2023-08-06T15:15:46;19.20;99.90
6357;DHT22;3211;53.452;-2.264;2023-08-06T15:18:32;19.20;99.90
6357;DHT22;3211;53.452;-2.264;2023-08-06T15:21:14;23.90;99.90
6357;DHT22;3211;53.452;-2.264;2023-08-06T15:23:56;26.90;1.00
6357;DHT22;3211;53.452;-2.264;2023-08-06T15:26:38;25.20;99.90
6357;DHT22;3211;53.452;-2.264;2023-08-06T15:29:25;25.20;99.90
6357;DHT22;3211;53.452;-2.264;2023-08-06T15:32:07;25.90;99.90
6357;DHT22;3211;53.452;-2.264;2023-08-06T15:34:49;25.90;99.90
6357;DHT22;3211;53.452;-2.264;2023-08-06T15:37:31;23.30;99.90
6357;DHT22;3211;53.452;-2.264;2023-08-06T15:40:17;21.20;1.00
6357;DHT22;3211;53.452;-2.264;2023-08-06T15:42:59;20.60;99.90
6357;DHT22;3211;53.452;-2.264;2023-08-06T15:45:42;20.10;99.90
6357;DHT22;3211;53.452;-2.264;2023-08-06T15:48:24;24.70;1.00
6357;DHT22;3211;53.452;-2.264;2023-08-06T15:51:10;25.20;99.90
6357;DHT22;3211;53.452;-2.264;2023-08-06T15:53:52;27.30;99.90
6357;DHT22;3211;53.452;-2.264;2023-08-06T15:56:34;23.50;99.90
6357;DHT22;3211;53.452;-2.264;2023-08-06T15:59:23;22.10;99.90
6357;DHT22;3211;53.452;-2.264;2023-08-06T16:02:07;24.50;99.90
6357;DHT22;3211;53.452;-2.264;2023-08-06T16:04:50;24.10;99.90
6357;DHT22;3211;53.452;-2.264;2023-08-06T16:07:35;22.10;99.90
6357;DHT22;3211;53.452;-2.264;2023-08-06T16:10:18;20.60;1.00
6357;DHT22;3211;53.452;-2.264;2023-08-06T16:13:00;20.60;52.90
6357;DHT22;3211;53.452;-2.264;2023-08-06T16:15:42;20.10;99.00
6357;DHT22;3211;53.452;-2.264;2023-08-06T16:18:28;19.50;79.90
6357;DHT22;3211;53.452;-2.264;2023-08-06T16:21:10;21.90;1.00
6357;DHT22;3211;53.452;-2.264;2023-08-06T16:23:53;22.50;1.00
6357;DHT22;3211;53.452;-2.264;2023-08-06T16:26:35;25.80;99.90
6357;DHT22;3211;53.452;-2.264;2023-08-06T16:29:17;26.10;99.90
6357;DHT22;3211;53.452;-2.264;2023-08-06T16:31:59;25.30;97.10
6357;DHT22;3211;53.452;-2.264;2023-08-06T16:34:43;23.30;99.90
6357;DHT22;3211;53.452;-2.264;2023-08-06T16:37:24;24.60;99.90
6357;DHT22;3211;53.452;-2.264;2023-08-06T16:40:08;24.10;99.90
6357;DHT22;3211;53.452;-2.264;2023-08-06T16:42:50;22.90;99.90
6357;DHT22;3211;53.452;-2.264;2023-08-06T16:45:36;22.60;99.90
6357;DHT22;3211;53.452;-2.264;2023-08-06T16:48:18;22.30;99.90
6357;DHT22;3211;53.452;-2.264;2023-08-06T16:51:05;21.60;99.90
6357;DHT22;3211;53.452;-2.264;2023-08-06T16:53:47;21.50;1.00
6357;DHT22;3211;53.452;-2.264;2023-08-06T16:56:32;21.80;1.00
6357;DHT22;3211;53.452;-2.264;2023-08-06T16:59:14;22.10;99.90
6357;DHT22;3211;53.452;-2.264;2023-08-06T17:01:56;22.60;99.90
6357;DHT22;3211;53.452;-2.264;2023-08-06T17:04:38;22.00;99.90
6357;DHT22;3211;53.452;-2.264;2023-08-06T17:07:25;21.80;99.90
6357;DHT22;3211;53.452;-2.264;2023-08-06T17:10:08;21.70;99.90
6357;DHT22;3211;53.452;-2.264;2023-08-06T17:12:50;21.50;99.90
6357;DHT22;3211;53.452;-2.264;2023-08-06T17:15:33;21.40;99.90
6357;DHT22;3211;53.452;-2.264;2023-08-06T17:18:19;21.10;99.90
6357;DHT22;3211;53.452;-2.264;2023-08-06T17:21:01;20.40;99.90
6357;DHT22;3211;53.452;-2.264;2023-08-06T17:23:44;20.30;1.00
6357;DHT22;3211;53.452;-2.264;2023-08-06T17:26:26;20.50;1.00
6357;DHT22;3211;53.452;-2.264;2023-08-06T17:29:12;20.80;1.00
6357;DHT22;3211;53.452;-2.264;2023-08-06T17:31:54;20.40;99.90